createdAt,value
2018-11-26T00:01:23.635Z,32.97
2018-11-26T00:03:58.295Z,34.10
2018-11-26T00:06:34.061Z,36.37
2018-11-26T00:09:08.438Z,33.90
2018-11-26T00:11:40.391Z,34.67
2018-11-26T00:14:17.248Z,33.87
2018-11-26T00:16:51.487Z,34.23
2018-11-26T00:19:26.244Z,32.60
2018-11-26T00:21:58.624Z,32.30
2018-11-26T00:24:28.432Z,32.27
2018-11-26T00:26:58.952Z,30.70
2018-11-26T00:29:30.893Z,32.20
2018-11-26T00:32:08.256Z,32.40
2018-11-26T00:34:41.286Z,31.70
2018-11-26T00:37:12.509Z,31.47
2018-11-26T00:39:43.064Z,31.60
2018-11-26T00:42:14.617Z,31.13
2018-11-26T00:44:45.725Z,32.47
2018-11-26T00:47:16.868Z,32.37
2018-11-26T00:49:46.762Z,32.67
2018-11-26T00:52:17.246Z,33.60
2018-11-26T00:54:51.957Z,33.80
2018-11-26T00:57:23.095Z,32.23
2018-11-26T00:59:54.570Z,34.57
2018-11-26T01:02:24.660Z,34.67
2018-11-26T01:05:42.976Z,36.10
2018-11-26T01:08:17.223Z,34.70
2018-11-26T01:10:47.268Z,35.77
2018-11-26T01:13:20.552Z,36.53
2018-11-26T01:15:51.182Z,37.73
2018-11-26T01:18:22.018Z,37.63
2018-11-26T01:20:51.966Z,38.90
2018-11-26T01:23:24.238Z,39.57
2018-11-26T01:25:55.980Z,40.00
2018-11-26T01:28:28.740Z,38.13
2018-11-26T01:31:02.040Z,38.87
2018-11-26T01:33:37.170Z,38.10
2018-11-26T01:36:08.909Z,38.63
2018-11-26T01:38:39.389Z,37.77
2018-11-26T01:41:09.777Z,36.87
2018-11-26T01:43:40.989Z,35.83
2018-11-26T01:46:11.553Z,36.33
2018-11-26T01:48:40.932Z,35.60
2018-11-26T01:51:12.940Z,35.33
2018-11-26T01:53:43.263Z,34.77
2018-11-26T01:56:14.480Z,35.73
2018-11-26T01:58:48.032Z,35.47
2018-11-26T02:01:27.300Z,35.53
2018-11-26T02:03:57.704Z,32.37
2018-11-26T02:06:27.344Z,36.17
2018-11-26T02:08:57.331Z,33.80
2018-11-26T02:11:29.361Z,33.73
2018-11-26T02:13:59.103Z,32.80
2018-11-26T02:16:29.444Z,33.73
2018-11-26T02:18:59.447Z,33.33
2018-11-26T02:21:31.130Z,33.30
2018-11-26T02:24:04.531Z,33.77
2018-11-26T02:26:39.845Z,34.50
2018-11-26T02:29:11.212Z,32.47
2018-11-26T02:31:41.423Z,34.40
2018-11-26T02:34:12.375Z,34.13
2018-11-26T02:36:46.028Z,35.90
2018-11-26T02:39:17.716Z,35.07
2018-11-26T02:41:52.076Z,32.33
2018-11-26T02:51:13.399Z,31.23
2018-11-26T02:53:44.145Z,33.70
2018-11-26T02:56:14.592Z,33.07
2018-11-26T02:58:46.749Z,31.37
2018-11-26T03:01:21.716Z,29.87
2018-11-26T03:03:54.001Z,30.93
2018-11-26T03:06:27.319Z,31.33
2018-11-26T03:09:01.331Z,30.63
2018-11-26T03:11:39.131Z,31.27
2018-11-26T03:14:10.702Z,31.47
2018-11-26T03:16:42.018Z,32.63
2018-11-26T03:19:14.393Z,32.63
2018-11-26T03:21:47.268Z,31.80
2018-11-26T03:24:17.863Z,32.83
2018-11-26T03:26:48.143Z,31.57
2018-11-26T03:29:20.879Z,32.30
2018-11-26T03:31:51.856Z,32.77
2018-11-26T03:34:23.836Z,32.80
2018-11-26T03:36:54.857Z,30.93
2018-11-26T03:39:28.356Z,30.37
2018-11-26T03:41:59.589Z,30.00
2018-11-26T03:44:30.201Z,29.97
2018-11-26T03:47:06.079Z,31.33
2018-11-26T03:49:38.757Z,30.17
2018-11-26T03:52:11.104Z,29.20
2018-11-26T03:54:45.289Z,29.77
2018-11-26T03:57:17.465Z,30.93
2018-11-26T03:59:50.954Z,29.57
2018-11-26T04:02:25.632Z,32.60
2018-11-26T04:04:59.232Z,30.00
2018-11-26T04:07:35.247Z,31.97
2018-11-26T04:10:10.121Z,30.60
2018-11-26T04:12:41.771Z,30.00
2018-11-26T04:15:15.459Z,27.97
2018-11-26T04:17:46.433Z,27.60
2018-11-26T04:20:18.278Z,28.10
2018-11-26T04:22:54.134Z,27.13
2018-11-26T04:25:27.331Z,27.70
2018-11-26T04:28:02.539Z,28.10
2018-11-26T04:30:35.954Z,27.27
2018-11-26T04:33:10.740Z,26.90
2018-11-26T04:35:44.682Z,28.47
2018-11-26T04:38:19.530Z,27.27
2018-11-26T04:40:55.998Z,27.27
2018-11-26T04:43:26.798Z,25.67
2018-11-26T04:45:59.496Z,26.50
2018-11-26T04:48:30.045Z,27.70
2018-11-26T04:51:02.882Z,27.50
2018-11-26T04:53:38.251Z,27.97
2018-11-26T04:56:13.478Z,28.67
2018-11-26T04:58:46.477Z,27.50
2018-11-26T05:04:12.589Z,26.73
2018-11-26T05:06:44.997Z,27.63
2018-11-26T05:09:21.321Z,27.13
2018-11-26T05:11:56.401Z,29.00
2018-11-26T05:14:28.482Z,29.00
2018-11-26T05:17:05.507Z,28.27
2018-11-26T05:19:35.328Z,27.07
2018-11-26T05:22:07.213Z,26.53
2018-11-26T05:24:37.330Z,27.20
2018-11-26T05:27:08.069Z,26.27
2018-11-26T05:29:45.481Z,27.70
2018-11-26T05:32:18.044Z,26.70
2018-11-26T05:34:47.320Z,26.57
2018-11-26T05:37:16.415Z,25.40
2018-11-26T05:39:46.343Z,27.03
2018-11-26T05:42:17.047Z,27.00
2018-11-26T05:44:48.772Z,26.20
2018-11-26T05:47:21.668Z,26.60
2018-11-26T05:49:50.699Z,26.77
2018-11-26T05:52:20.822Z,26.57
2018-11-26T05:54:50.225Z,25.57
2018-11-26T05:57:21.305Z,24.87
2018-11-26T05:59:51.781Z,26.43
2018-11-26T06:02:21.305Z,27.10
2018-11-26T06:04:50.536Z,26.30
2018-11-26T06:07:21.001Z,27.23
2018-11-26T06:09:50.460Z,27.97
2018-11-26T06:12:21.247Z,28.10
2018-11-26T06:14:51.276Z,29.63
2018-11-26T06:17:20.511Z,26.57
2018-11-26T06:19:51.076Z,28.50
2018-11-26T06:22:20.413Z,30.77
2018-11-26T06:24:53.182Z,29.57
2018-11-26T06:27:24.020Z,30.70
2018-11-26T06:29:53.592Z,29.97
2018-11-26T06:32:25.794Z,29.63
2018-11-26T06:34:55.062Z,28.70
2018-11-26T06:37:24.440Z,30.50
2018-11-26T06:39:54.241Z,29.13
2018-11-26T06:42:24.115Z,29.27
2018-11-26T06:44:54.751Z,30.00
2018-11-26T06:47:24.545Z,30.87
2018-11-26T06:49:54.074Z,30.80
2018-11-26T06:52:23.663Z,30.83
2018-11-26T06:54:53.724Z,31.50
2018-11-26T06:57:23.847Z,32.23
2018-11-26T06:59:53.728Z,31.83
2018-11-26T07:02:24.962Z,33.67
2018-11-26T07:04:57.597Z,31.53
2018-11-26T07:07:28.168Z,34.30
2018-11-26T07:09:57.484Z,32.70
2018-11-26T07:12:27.487Z,33.57
2018-11-26T07:14:57.884Z,33.10
2018-11-26T07:17:28.028Z,35.53
2018-11-26T07:19:58.988Z,34.70
2018-11-26T07:22:28.692Z,31.80
2018-11-26T07:24:58.252Z,34.33
2018-11-26T07:27:29.021Z,33.77
2018-11-26T07:29:58.727Z,34.77
2018-11-26T07:32:28.023Z,34.83
2018-11-26T07:34:59.979Z,33.70
2018-11-26T07:37:31.543Z,32.93
2018-11-26T07:40:07.425Z,35.30
2018-11-26T07:42:39.866Z,33.97
2018-11-26T07:45:19.403Z,35.37
2018-11-26T07:47:47.860Z,34.00
2018-11-26T07:50:19.796Z,35.37
2018-11-26T07:52:50.039Z,34.10
2018-11-26T07:55:22.951Z,35.53
2018-11-26T07:57:51.895Z,34.90
2018-11-26T08:00:21.818Z,35.00
2018-11-26T08:02:51.769Z,35.70
2018-11-26T08:05:23.789Z,34.47
2018-11-26T08:07:55.385Z,34.37
2018-11-26T08:10:25.539Z,36.10
2018-11-26T08:12:59.358Z,35.73
2018-11-26T08:15:31.548Z,36.00
2018-11-26T08:18:02.930Z,34.30
2018-11-26T08:20:35.094Z,34.50
2018-11-26T08:23:06.338Z,35.50
2018-11-26T08:25:40.421Z,34.67
2018-11-26T08:28:14.027Z,33.77
2018-11-26T08:30:44.233Z,35.57
2018-11-26T08:33:15.193Z,32.30
2018-11-26T08:35:43.786Z,32.93
2018-11-26T08:38:18.946Z,33.53
2018-11-26T08:40:49.858Z,34.80
2018-11-26T08:43:20.821Z,35.87
2018-11-26T08:45:58.085Z,33.90
2018-11-26T08:48:28.514Z,33.33
2018-11-26T08:50:59.974Z,32.13
2018-11-26T08:53:30.802Z,33.53
2018-11-26T08:56:03.609Z,32.60
2018-11-26T08:58:33.431Z,33.67
2018-11-26T09:01:06.226Z,31.00
2018-11-26T09:04:39.681Z,32.80
2018-11-26T09:07:08.963Z,30.73
2018-11-26T09:09:40.732Z,29.23
2018-11-26T09:12:12.374Z,31.40
2018-11-26T09:14:41.896Z,31.77
2018-11-26T09:17:12.746Z,29.70
2018-11-26T09:19:42.263Z,29.77
2018-11-26T09:22:12.883Z,30.10
2018-11-26T09:24:43.898Z,29.97
2018-11-26T09:27:16.740Z,29.93
2018-11-26T09:29:45.431Z,31.03
2018-11-26T09:32:18.246Z,29.57
2018-11-26T09:34:47.244Z,27.20
2018-11-26T09:37:18.784Z,27.40
2018-11-26T09:39:47.845Z,28.23
2018-11-26T09:42:19.019Z,28.77
2018-11-26T09:44:51.811Z,27.67
2018-11-26T09:47:23.057Z,26.77
2018-11-26T09:49:53.524Z,27.90
2018-11-26T09:52:23.601Z,25.97
2018-11-26T09:54:52.684Z,27.07
2018-11-26T09:57:21.359Z,26.17
2018-11-26T09:59:51.702Z,27.63
2018-11-26T10:02:20.091Z,25.50
2018-11-26T10:04:49.495Z,26.43
2018-11-26T10:07:18.939Z,24.10
2018-11-26T10:09:52.594Z,27.73
2018-11-26T10:12:22.339Z,25.73
2018-11-26T10:14:54.310Z,25.60
2018-11-26T10:17:23.908Z,25.60
2018-11-26T10:19:53.076Z,25.67
2018-11-26T10:22:23.075Z,24.77
2018-11-26T10:24:51.449Z,26.20
2018-11-26T10:27:19.971Z,26.13
2018-11-26T10:29:52.292Z,23.83
2018-11-26T10:32:22.707Z,24.77
2018-11-26T10:34:52.126Z,25.37
2018-11-26T10:37:21.880Z,23.37
2018-11-26T10:39:52.720Z,22.97
2018-11-26T10:42:22.934Z,22.90
2018-11-26T10:44:51.469Z,22.53
2018-11-26T10:47:20.637Z,23.53
2018-11-26T10:49:50.858Z,22.53
2018-11-26T10:52:19.350Z,23.90
2018-11-26T10:54:48.176Z,22.80
2018-11-26T10:57:18.210Z,23.23
2018-11-26T10:59:48.188Z,19.57
2018-11-26T11:02:23.928Z,21.83
2018-11-26T11:04:53.459Z,22.87
2018-11-26T11:07:23.807Z,22.03
2018-11-26T11:09:53.124Z,21.53
2018-11-26T11:12:23.099Z,21.93
2018-11-26T11:14:51.674Z,22.07
2018-11-26T11:17:22.684Z,20.77
2018-11-26T11:19:52.313Z,19.63
2018-11-26T11:22:21.663Z,19.70
2018-11-26T11:24:50.984Z,19.63
2018-11-26T11:27:20.813Z,19.33
2018-11-26T11:29:50.648Z,20.23
2018-11-26T11:32:20.491Z,20.07
2018-11-26T11:34:49.864Z,20.20
2018-11-26T11:37:18.954Z,19.60
2018-11-26T11:39:47.972Z,21.27
2018-11-26T11:42:18.088Z,20.17
2018-11-26T11:44:48.383Z,20.53
2018-11-26T11:47:17.728Z,19.23
2018-11-26T11:49:51.605Z,20.50
2018-11-26T11:52:21.697Z,20.00
2018-11-26T11:54:51.217Z,19.47
2018-11-26T11:57:20.823Z,19.80
2018-11-26T11:59:50.291Z,20.10
2018-11-26T12:02:21.175Z,18.27
2018-11-26T12:04:51.805Z,20.13
2018-11-26T12:07:21.653Z,19.93
2018-11-26T12:09:51.106Z,20.10
2018-11-26T12:12:21.846Z,20.00
2018-11-26T12:14:52.202Z,20.63
2018-11-26T12:17:21.421Z,18.90
2018-11-26T12:19:51.176Z,20.60
2018-11-26T12:22:20.987Z,19.83
2018-11-26T12:24:50.775Z,21.00
2018-11-26T12:27:21.054Z,20.73
2018-11-26T12:29:50.921Z,18.80
2018-11-26T12:32:20.537Z,19.30
2018-11-26T12:34:50.741Z,18.73
2018-11-26T12:37:20.712Z,19.40
2018-11-26T12:39:50.692Z,20.07
2018-11-26T12:42:20.878Z,20.00
2018-11-26T12:44:54.403Z,21.60
2018-11-26T12:47:24.061Z,22.20
2018-11-26T12:49:54.450Z,22.23
2018-11-26T12:52:25.586Z,21.53
2018-11-26T12:54:55.082Z,22.40
2018-11-26T12:57:24.972Z,21.97
2018-11-26T12:59:56.947Z,22.67
2018-11-26T13:02:27.291Z,24.87
2018-11-26T13:04:58.079Z,25.00
2018-11-26T13:07:28.140Z,24.37
2018-11-26T13:09:57.746Z,24.80
2018-11-26T13:12:27.587Z,24.20
2018-11-26T13:14:57.536Z,24.63
2018-11-26T13:17:28.074Z,24.33
2018-11-26T13:19:58.732Z,24.03
2018-11-26T13:22:30.087Z,22.40
2018-11-26T13:24:58.941Z,21.33
2018-11-26T13:27:29.874Z,24.20
2018-11-26T13:30:02.660Z,23.80
2018-11-26T13:32:31.962Z,22.40
2018-11-26T13:35:03.604Z,24.00
2018-11-26T13:37:36.718Z,23.40
2018-11-26T13:40:08.692Z,24.47
2018-11-26T13:42:39.165Z,23.37
2018-11-26T13:45:14.566Z,22.63
2018-11-26T13:47:44.508Z,23.57
2018-11-26T13:50:23.015Z,23.50
2018-11-26T13:52:55.067Z,23.90
2018-11-26T13:55:28.575Z,22.77
2018-11-26T13:58:08.604Z,22.87
2018-11-26T14:00:38.410Z,24.00
2018-11-26T14:03:07.894Z,25.30
2018-11-26T14:05:37.598Z,23.80
2018-11-26T14:08:08.743Z,22.50
2018-11-26T14:10:37.840Z,21.10
2018-11-26T14:13:13.615Z,23.70
2018-11-26T14:15:43.621Z,24.53
2018-11-26T14:18:12.728Z,28.33
2018-11-26T14:20:44.050Z,29.13
2018-11-26T14:23:14.175Z,26.37
2018-11-26T14:25:44.924Z,26.07
2018-11-26T14:28:14.430Z,25.10
2018-11-26T14:30:43.687Z,24.03
2018-11-26T14:33:12.912Z,22.87
2018-11-26T14:35:42.071Z,24.77
2018-11-26T14:38:12.327Z,25.83
2018-11-26T14:40:49.739Z,24.80
2018-11-26T14:43:21.075Z,22.83
2018-11-26T14:45:54.458Z,25.20
2018-11-26T14:48:24.824Z,24.73
2018-11-26T14:50:56.072Z,25.73
2018-11-26T14:53:28.130Z,24.27
2018-11-26T14:56:02.021Z,25.03
2018-11-26T14:58:31.629Z,25.17
2018-11-26T15:01:07.987Z,24.90
2018-11-26T15:03:37.696Z,25.83
2018-11-26T15:06:09.250Z,24.33
2018-11-26T15:08:38.511Z,20.33
2018-11-26T15:11:10.007Z,20.63
2018-11-26T15:13:39.392Z,22.67
2018-11-26T15:16:10.024Z,21.90
2018-11-26T15:18:39.771Z,19.80
2018-11-26T15:21:08.882Z,20.87
2018-11-26T15:23:37.941Z,22.20
2018-11-26T15:26:07.003Z,22.60
2018-11-26T15:28:36.317Z,24.23
2018-11-26T15:31:11.561Z,26.03
2018-11-26T15:33:41.367Z,23.67
2018-11-26T15:36:09.940Z,22.60
2018-11-26T15:38:44.036Z,24.90
2018-11-26T15:41:13.878Z,23.17
2018-11-26T15:43:43.795Z,24.37
2018-11-26T15:46:12.759Z,23.53
2018-11-26T15:48:42.135Z,24.83
2018-11-26T15:51:11.182Z,24.23
2018-11-26T15:53:40.479Z,24.87
2018-11-26T15:56:11.420Z,24.70
2018-11-26T15:58:42.349Z,26.17
2018-11-26T16:01:11.041Z,23.10
2018-11-26T16:03:40.535Z,24.77
2018-11-26T16:06:09.841Z,23.00
2018-11-26T16:08:41.570Z,25.40
2018-11-26T16:11:11.075Z,24.07
2018-11-26T16:13:41.038Z,24.20
2018-11-26T16:16:10.516Z,24.93
2018-11-26T16:18:40.171Z,23.43
2018-11-26T16:21:08.938Z,24.63
2018-11-26T16:23:38.698Z,24.20
2018-11-26T16:26:07.840Z,22.80
2018-11-26T16:28:37.530Z,24.33
2018-11-26T16:31:06.394Z,24.07
2018-11-26T16:33:36.843Z,22.13
2018-11-26T16:36:10.357Z,22.60
2018-11-26T16:38:43.652Z,20.17
2018-11-26T16:41:13.564Z,23.00
2018-11-26T16:43:42.139Z,21.00
2018-11-26T16:46:17.056Z,22.23
2018-11-26T16:48:46.996Z,22.23
2018-11-26T16:51:16.908Z,20.67
2018-11-26T16:53:46.007Z,21.30
2018-11-26T16:56:16.123Z,22.60
2018-11-26T16:58:45.418Z,20.87
2018-11-26T17:01:15.087Z,19.97
2018-11-26T17:03:45.536Z,20.90
2018-11-26T17:06:14.507Z,21.90
2018-11-26T17:08:43.623Z,22.43
2018-11-26T17:11:13.605Z,22.33
2018-11-26T17:13:42.938Z,20.70
2018-11-26T17:16:12.954Z,21.77
2018-11-26T17:18:44.088Z,21.30
2018-11-26T17:21:13.600Z,22.30
2018-11-26T17:23:43.541Z,21.77
2018-11-26T17:26:13.942Z,23.50
2018-11-26T17:28:44.344Z,22.57
2018-11-26T17:31:13.849Z,22.80
2018-11-26T17:33:44.084Z,23.00
2018-11-26T17:36:15.239Z,20.27
2018-11-26T17:38:45.429Z,20.90
2018-11-26T17:41:15.675Z,21.00
2018-11-26T17:43:47.432Z,21.43
2018-11-26T17:46:17.183Z,18.53
2018-11-26T17:48:48.417Z,18.03
2018-11-26T17:51:21.888Z,18.10
2018-11-26T17:53:51.406Z,19.93
2018-11-26T17:56:21.355Z,17.47
2018-11-26T17:58:50.424Z,18.77
2018-11-26T18:01:25.935Z,18.27
2018-11-26T18:03:56.075Z,18.50
2018-11-26T18:06:25.983Z,19.93
2018-11-26T18:08:56.073Z,18.63
2018-11-26T18:11:26.035Z,18.17
2018-11-26T18:13:54.852Z,18.00
2018-11-26T18:16:23.608Z,19.83
2018-11-26T18:18:52.583Z,19.07
2018-11-26T18:21:21.604Z,18.33
2018-11-26T18:23:51.886Z,18.73
2018-11-26T18:26:20.981Z,18.80
2018-11-26T18:28:50.522Z,17.70
2018-11-26T18:31:20.123Z,17.53
2018-11-26T18:33:49.468Z,15.70
2018-11-26T18:36:18.806Z,15.70
2018-11-26T18:38:48.353Z,14.27
2018-11-26T18:41:18.058Z,13.97
2018-11-26T18:43:47.528Z,14.70
2018-11-26T18:46:17.330Z,13.50
2018-11-26T18:48:47.340Z,13.50
2018-11-26T18:51:17.582Z,13.50
2018-11-26T18:53:46.951Z,12.53
2018-11-26T18:56:17.055Z,13.07
2018-11-26T18:58:47.514Z,13.60
2018-11-26T19:01:18.653Z,12.57
2018-11-26T19:03:51.125Z,12.70
2018-11-26T19:06:20.735Z,13.90
2018-11-26T19:08:49.799Z,13.93
2018-11-26T19:11:19.336Z,13.67
2018-11-26T19:13:58.976Z,12.90
2018-11-26T19:16:31.079Z,14.83
2018-11-26T19:19:01.731Z,13.00
2018-11-26T19:21:30.350Z,14.00
2018-11-26T19:23:59.462Z,14.10
2018-11-26T19:26:30.279Z,12.40
2018-11-26T19:28:59.335Z,14.60
2018-11-26T19:31:29.085Z,13.03
2018-11-26T19:33:58.585Z,14.87
2018-11-26T19:36:30.626Z,14.63
2018-11-26T19:38:59.928Z,13.87
2018-11-26T19:41:29.567Z,14.30
2018-11-26T19:43:59.554Z,13.83
2018-11-26T19:46:28.607Z,14.90
2018-11-26T19:48:57.523Z,13.90
2018-11-26T19:51:28.742Z,14.47
2018-11-26T19:53:58.201Z,13.10
2018-11-26T19:56:28.120Z,13.60
2018-11-26T19:58:58.906Z,14.10
2018-11-26T20:01:29.278Z,14.87
2018-11-26T20:04:07.386Z,14.40
2018-11-26T20:06:37.511Z,14.87
2018-11-26T20:09:09.672Z,15.00
2018-11-26T20:11:39.971Z,15.70
2018-11-26T20:14:09.791Z,14.97
2018-11-26T20:16:44.304Z,15.13
2018-11-26T20:19:14.650Z,15.33
2018-11-26T20:21:44.906Z,15.60
2018-11-26T20:24:14.267Z,15.37
2018-11-26T20:26:43.975Z,16.10
2018-11-26T20:29:20.667Z,15.50
2018-11-26T20:31:51.483Z,16.03
2018-11-26T20:34:25.383Z,15.80
2018-11-26T20:36:54.382Z,16.40
2018-11-26T20:39:24.256Z,16.83
2018-11-26T20:41:55.755Z,15.90
2018-11-26T20:44:25.971Z,15.00
2018-11-26T20:47:03.075Z,17.27
2018-11-26T20:49:33.146Z,18.67
2018-11-26T20:52:05.211Z,17.27
2018-11-26T20:54:37.194Z,16.90
2018-11-26T20:57:10.765Z,17.77
2018-11-26T20:59:41.739Z,17.60
2018-11-26T21:02:11.245Z,20.50
2018-11-26T21:04:45.757Z,21.50
2018-11-26T21:07:16.605Z,21.60
2018-11-26T21:09:47.428Z,18.37
2018-11-26T21:12:20.110Z,21.13
2018-11-26T21:14:52.006Z,20.93
2018-11-26T21:17:26.085Z,21.57
2018-11-26T21:19:58.764Z,20.90
2018-11-26T21:22:29.992Z,19.77
2018-11-26T21:25:01.500Z,20.67
2018-11-26T21:27:31.065Z,21.40
2018-11-26T21:30:02.512Z,20.77
2018-11-26T21:32:31.344Z,19.77
2018-11-26T21:35:01.107Z,19.17
2018-11-26T21:37:30.488Z,20.07
2018-11-26T21:40:03.010Z,18.73
2018-11-26T21:42:34.228Z,19.03
2018-11-26T21:45:06.565Z,18.60
2018-11-26T21:47:38.616Z,20.33
2018-11-26T21:50:12.788Z,20.33
2018-11-26T21:52:44.748Z,20.43
2018-11-26T21:55:17.227Z,20.20
2018-11-26T21:57:48.873Z,21.77
2018-11-26T22:00:27.562Z,21.03
2018-11-26T22:02:59.015Z,21.40
2018-11-26T22:05:31.717Z,22.20
2018-11-26T22:08:05.521Z,20.20
2018-11-26T22:10:36.965Z,21.03
2018-11-26T22:13:12.725Z,20.27
2018-11-26T22:15:41.506Z,20.40
2018-11-26T22:18:14.276Z,21.27
2018-11-26T22:20:45.599Z,19.90
2018-11-26T22:23:16.034Z,19.93
2018-11-26T22:25:49.717Z,18.40
2018-11-26T22:28:19.891Z,20.33
2018-11-26T22:30:50.410Z,22.43
2018-11-26T22:33:22.370Z,19.97
2018-11-26T22:35:52.785Z,20.03
2018-11-26T22:38:21.207Z,21.00
2018-11-26T22:40:52.958Z,19.40
2018-11-26T22:43:22.937Z,19.20
2018-11-26T22:45:52.790Z,18.50
2018-11-26T22:48:21.796Z,18.90
2018-11-26T22:50:53.345Z,19.60
2018-11-26T22:53:22.405Z,19.60
2018-11-26T22:55:51.638Z,20.83
2018-11-26T22:58:21.318Z,19.30
2018-11-26T23:00:53.559Z,19.67
2018-11-26T23:03:25.776Z,19.10
2018-11-26T23:06:08.374Z,19.33
2018-11-26T23:08:40.111Z,19.50
2018-11-26T23:11:10.744Z,20.40
2018-11-26T23:13:40.145Z,23.67
2018-11-26T23:16:11.051Z,20.90
2018-11-26T23:18:42.308Z,18.20
2018-11-26T23:21:15.757Z,19.23
2018-11-26T23:23:45.946Z,18.47
2018-11-26T23:26:18.108Z,19.90
2018-11-26T23:28:50.471Z,19.50
2018-11-26T23:31:22.242Z,19.63
2018-11-26T23:33:51.842Z,19.87
2018-11-26T23:36:21.431Z,18.87
2018-11-26T23:38:53.107Z,19.57
2018-11-26T23:41:31.025Z,19.93
2018-11-26T23:44:01.024Z,19.67
2018-11-26T23:46:31.350Z,18.60
2018-11-26T23:49:01.497Z,20.00
2018-11-26T23:51:31.275Z,18.50
2018-11-26T23:54:02.628Z,19.90
2018-11-26T23:56:32.645Z,20.10
2018-11-26T23:59:02.967Z,19.80
